createdAt,value
2017-08-22T00:00:29.273Z,5.30
2017-08-22T00:02:56.832Z,5.23
2017-08-22T00:05:24.435Z,5.60
2017-08-22T00:07:52.386Z,5.47
2017-08-22T00:10:19.920Z,5.90
2017-08-22T00:12:48.714Z,4.70
2017-08-22T00:15:16.251Z,5.17
2017-08-22T00:17:43.818Z,5.83
2017-08-22T00:20:11.365Z,5.37
2017-08-22T00:22:38.966Z,5.30
2017-08-22T00:25:06.513Z,5.30
2017-08-22T00:27:34.100Z,5.67
2017-08-22T00:30:01.660Z,6.70
2017-08-22T00:32:29.198Z,5.30
2017-08-22T00:34:57.689Z,5.50
2017-08-22T00:37:25.273Z,6.23
2017-08-22T00:39:52.813Z,5.27
2017-08-22T00:42:20.352Z,5.30
2017-08-22T00:44:47.918Z,4.70
2017-08-22T00:47:15.746Z,6.37
2017-08-22T00:49:43.314Z,6.50
2017-08-22T00:52:10.854Z,6.57
2017-08-22T00:54:38.430Z,7.13
2017-08-22T00:57:05.973Z,5.23
2017-08-22T00:59:33.570Z,6.00
2017-08-22T01:02:01.110Z,5.40
2017-08-22T01:04:28.649Z,5.67
2017-08-22T01:06:56.219Z,5.27
2017-08-22T01:09:23.754Z,5.20
2017-08-22T01:11:51.325Z,4.80
2017-08-22T01:14:18.877Z,5.43
2017-08-22T01:16:46.457Z,5.07
2017-08-22T01:19:14.002Z,6.03
2017-08-22T01:21:41.559Z,5.07
2017-08-22T01:24:09.128Z,5.60
2017-08-22T01:26:36.706Z,5.40
2017-08-22T01:29:04.258Z,5.90
2017-08-22T01:31:31.854Z,5.20
2017-08-22T01:33:59.430Z,5.00
2017-08-22T01:36:26.976Z,5.37
2017-08-22T01:38:54.576Z,5.00
2017-08-22T01:41:22.122Z,6.17
2017-08-22T01:43:49.679Z,5.70
2017-08-22T01:46:17.261Z,4.63
2017-08-22T01:48:44.808Z,5.53
2017-08-22T01:51:12.394Z,5.37
2017-08-22T01:53:39.930Z,5.37
2017-08-22T01:56:07.468Z,5.97
2017-08-22T01:58:35.042Z,7.37
2017-08-22T02:01:02.574Z,4.93
2017-08-22T02:03:30.150Z,5.80
2017-08-22T02:05:57.691Z,4.60
2017-08-22T02:08:25.235Z,5.60
2017-08-22T02:10:52.818Z,5.00
2017-08-22T02:13:20.361Z,5.63
2017-08-22T02:15:47.894Z,6.07
2017-08-22T02:18:15.498Z,5.20
2017-08-22T02:20:43.039Z,6.47
2017-08-22T02:23:10.587Z,6.60
2017-08-22T02:25:38.166Z,6.67
2017-08-22T02:28:05.704Z,6.17
2017-08-22T02:30:33.284Z,5.30
2017-08-22T02:33:00.823Z,6.40
2017-08-22T02:35:28.379Z,5.77
2017-08-22T02:37:55.954Z,6.83
2017-08-22T02:40:23.510Z,6.73
2017-08-22T02:42:51.092Z,6.50
2017-08-22T02:45:18.682Z,6.23
2017-08-22T02:47:46.251Z,6.23
2017-08-22T02:50:13.790Z,6.60
2017-08-22T02:52:41.382Z,6.90
2017-08-22T02:55:08.919Z,7.00
2017-08-22T02:57:36.458Z,7.07
2017-08-22T03:00:04.047Z,6.50
2017-08-22T03:02:31.586Z,7.33
2017-08-22T03:05:00.865Z,8.40
2017-08-22T03:07:28.425Z,7.03
2017-08-22T03:09:56.734Z,8.13
2017-08-22T03:12:24.306Z,9.30
2017-08-22T03:14:51.842Z,9.30
2017-08-22T03:17:19.411Z,7.30
2017-08-22T03:19:46.968Z,7.57
2017-08-22T03:22:14.556Z,7.10
2017-08-22T03:24:42.101Z,6.20
2017-08-22T03:27:09.646Z,8.30
2017-08-22T03:29:37.222Z,8.90
2017-08-22T03:32:04.763Z,7.67
2017-08-22T03:34:32.337Z,8.73
2017-08-22T03:36:59.881Z,6.50
2017-08-22T03:39:28.150Z,7.60
2017-08-22T03:41:55.702Z,7.60
2017-08-22T03:44:23.245Z,8.20
2017-08-22T03:46:50.838Z,7.50
2017-08-22T03:49:18.419Z,7.27
2017-08-22T03:51:45.962Z,6.73
2017-08-22T03:54:13.546Z,7.33
2017-08-22T03:56:41.086Z,6.83
2017-08-22T03:59:08.630Z,7.60
2017-08-22T04:01:36.206Z,7.37
2017-08-22T04:04:03.768Z,7.47
2017-08-22T04:06:31.658Z,7.33
2017-08-22T04:09:00.093Z,7.07
2017-08-22T04:11:27.642Z,7.80
2017-08-22T04:13:55.234Z,7.30
2017-08-22T04:16:22.800Z,7.87
2017-08-22T04:18:50.396Z,7.50
2017-08-22T04:21:17.984Z,7.67
2017-08-22T04:23:45.890Z,9.80
2017-08-22T04:26:14.456Z,8.90
2017-08-22T04:28:41.995Z,8.97
2017-08-22T04:31:09.577Z,7.67
2017-08-22T04:33:37.121Z,8.37
2017-08-22T04:36:05.314Z,7.83
2017-08-22T04:38:32.908Z,7.60
2017-08-22T04:41:00.445Z,8.00
2017-08-22T04:43:28.001Z,7.83
2017-08-22T04:45:56.153Z,7.23
2017-08-22T04:48:23.730Z,7.53
2017-08-22T04:50:51.294Z,8.27
2017-08-22T04:53:18.864Z,7.17
2017-08-22T04:55:46.431Z,8.30
2017-08-22T04:58:14.916Z,7.53
2017-08-22T05:03:46.705Z,8.20
2017-08-22T05:06:17.212Z,8.77
2017-08-22T05:08:57.659Z,8.60
2017-08-22T05:11:31.004Z,8.43
2017-08-22T05:14:00.113Z,8.13
2017-08-22T05:16:33.815Z,8.40
2017-08-22T05:19:03.959Z,9.23
2017-08-22T05:21:46.377Z,8.10
2017-08-22T05:24:16.437Z,9.03
2017-08-22T05:26:54.091Z,7.50
2017-08-22T05:32:04.174Z,8.50
2017-08-22T05:34:37.035Z,9.07
2017-08-22T05:42:37.828Z,7.73
2017-08-22T05:50:52.692Z,8.83
2017-08-22T05:53:36.132Z,8.83
2017-08-22T05:56:11.817Z,8.30
2017-08-22T05:58:47.033Z,7.70
2017-08-22T06:01:17.532Z,10.00
2017-08-22T06:03:48.569Z,9.03
2017-08-22T06:06:20.346Z,8.63
2017-08-22T06:09:12.977Z,7.70
2017-08-22T06:11:49.781Z,7.93
2017-08-22T06:14:25.614Z,7.60
2017-08-22T06:17:01.583Z,8.70
2017-08-22T06:19:36.548Z,8.83
2017-08-22T06:22:07.025Z,9.37
2017-08-22T06:24:34.621Z,8.67
2017-08-22T06:27:03.474Z,8.00
2017-08-22T06:29:34.193Z,8.03
2017-08-22T06:32:05.240Z,7.90
2017-08-22T06:37:15.773Z,7.47
2017-08-22T06:39:44.675Z,7.50
2017-08-22T06:42:12.223Z,6.97
2017-08-22T06:44:41.063Z,7.17
2017-08-22T06:47:09.474Z,6.67
2017-08-22T06:49:41.499Z,6.70
2017-08-22T06:52:09.066Z,6.23
2017-08-22T06:54:36.718Z,6.60
2017-08-22T06:57:05.160Z,6.97
2017-08-22T06:59:33.504Z,7.20
2017-08-22T07:02:06.847Z,5.73
2017-08-22T07:07:18.130Z,7.07
2017-08-22T07:09:51.281Z,6.07
2017-08-22T07:12:21.851Z,5.90
2017-08-22T07:14:55.405Z,5.60
2017-08-22T07:17:23.025Z,4.00
2017-08-22T07:19:50.587Z,4.97
2017-08-22T07:22:18.130Z,5.23
2017-08-22T07:24:45.749Z,4.60
2017-08-22T07:27:13.294Z,4.50
2017-08-22T07:29:41.847Z,4.70
2017-08-22T07:32:09.402Z,5.30
2017-08-22T07:34:37.013Z,4.47
2017-08-22T07:37:04.624Z,4.87
2017-08-22T07:39:32.891Z,4.10
2017-08-22T07:42:00.483Z,4.77
2017-08-22T07:44:28.055Z,3.90
2017-08-22T07:46:55.619Z,4.43
2017-08-22T07:49:23.221Z,4.30
2017-08-22T07:51:50.777Z,4.60
2017-08-22T07:54:18.428Z,4.40
2017-08-22T07:56:46.022Z,4.33
2017-08-22T07:59:13.580Z,3.30
2017-08-22T08:01:41.146Z,2.77
2017-08-22T08:04:08.735Z,2.93
2017-08-22T08:06:37.100Z,3.60
2017-08-22T08:09:04.687Z,2.50
2017-08-22T08:11:32.248Z,2.93
2017-08-22T08:13:59.802Z,3.07
2017-08-22T08:16:27.384Z,2.40
2017-08-22T08:18:55.310Z,3.17
2017-08-22T08:21:23.780Z,2.27
2017-08-22T08:23:51.351Z,2.50
2017-08-22T08:26:18.927Z,1.50
2017-08-22T08:28:47.419Z,2.20
2017-08-22T08:31:15.048Z,1.47
2017-08-22T08:33:42.627Z,1.60
2017-08-22T08:36:10.465Z,2.17
2017-08-22T08:38:38.026Z,1.70
2017-08-22T08:41:05.846Z,1.40
2017-08-22T08:43:35.259Z,1.30
2017-08-22T08:46:03.282Z,1.57
2017-08-22T08:48:31.390Z,1.50
2017-08-22T08:50:58.955Z,1.20
2017-08-22T08:53:26.517Z,2.13
2017-08-22T08:55:54.287Z,1.23
2017-08-22T08:58:21.866Z,1.90
2017-08-22T09:00:50.336Z,0.90
2017-08-22T09:03:18.830Z,1.47
2017-08-22T09:05:46.406Z,1.73
2017-08-22T09:08:13.998Z,1.57
2017-08-22T09:10:41.555Z,1.70
2017-08-22T09:13:10.098Z,1.70
2017-08-22T09:15:38.157Z,1.60
2017-08-22T09:18:06.295Z,1.83
2017-08-22T09:20:34.492Z,1.40
2017-08-22T09:23:05.418Z,1.90
2017-08-22T09:25:33.929Z,1.80
2017-08-22T09:28:02.071Z,1.87
2017-08-22T09:30:29.659Z,2.00
2017-08-22T09:32:57.310Z,1.53
2017-08-22T09:35:26.595Z,2.20
2017-08-22T09:37:56.535Z,1.53
2017-08-22T09:40:24.089Z,1.30
2017-08-22T09:42:51.661Z,1.77
2017-08-22T09:45:19.193Z,2.03
2017-08-22T09:47:46.742Z,1.63
2017-08-22T09:50:14.320Z,1.80
2017-08-22T09:52:42.662Z,2.03
2017-08-22T09:55:10.302Z,1.83
2017-08-22T09:57:37.838Z,2.17
2017-08-22T10:00:05.413Z,2.00
2017-08-22T10:02:32.983Z,1.80
2017-08-22T10:05:00.622Z,2.17
2017-08-22T10:07:28.159Z,2.00
2017-08-22T10:09:55.712Z,1.93
2017-08-22T10:12:23.290Z,1.70
2017-08-22T10:14:50.890Z,2.33
2017-08-22T10:17:18.618Z,2.00
2017-08-22T10:19:47.083Z,2.17
2017-08-22T10:22:14.665Z,2.13
2017-08-22T10:24:43.179Z,2.07
2017-08-22T10:27:10.714Z,2.03
2017-08-22T10:29:39.485Z,1.73
2017-08-22T10:32:07.017Z,2.00
2017-08-22T10:34:34.610Z,2.10
2017-08-22T10:37:02.155Z,2.63
2017-08-22T10:39:29.712Z,2.13
2017-08-22T10:41:58.187Z,2.43
2017-08-22T10:44:25.725Z,2.47
2017-08-22T10:46:54.219Z,2.03
2017-08-22T10:49:22.051Z,2.50
2017-08-22T10:51:49.617Z,2.20
2017-08-22T10:54:17.244Z,3.43
2017-08-22T10:56:44.810Z,2.80
2017-08-22T10:59:12.365Z,2.30
2017-08-22T11:01:40.891Z,3.03
2017-08-22T11:04:08.435Z,2.37
2017-08-22T11:06:36.859Z,2.43
2017-08-22T11:09:04.434Z,2.57
2017-08-22T11:11:32.026Z,2.53
2017-08-22T11:13:59.569Z,2.60
2017-08-22T11:16:27.398Z,2.37
2017-08-22T11:18:54.957Z,2.60
2017-08-22T11:21:22.564Z,2.17
2017-08-22T11:23:50.159Z,2.50
2017-08-22T11:26:17.702Z,2.27
2017-08-22T11:28:46.992Z,2.40
2017-08-22T11:31:14.583Z,2.77
2017-08-22T11:33:42.165Z,2.53
2017-08-22T11:36:09.804Z,2.70
2017-08-22T11:38:37.363Z,3.80
2017-08-22T11:41:04.999Z,2.70
2017-08-22T11:43:32.585Z,3.03
2017-08-22T11:46:00.163Z,3.70
2017-08-22T11:48:27.724Z,2.60
2017-08-22T11:50:56.055Z,2.87
2017-08-22T11:53:24.408Z,3.10
2017-08-22T11:55:52.757Z,2.60
2017-08-22T11:58:20.345Z,3.43
2017-08-22T12:00:47.884Z,2.77
2017-08-22T12:03:15.854Z,2.80
2017-08-22T12:05:43.413Z,2.87
2017-08-22T12:08:11.243Z,2.77
2017-08-22T12:10:38.831Z,3.00
2017-08-22T12:13:06.922Z,3.30
2017-08-22T12:15:35.480Z,2.80
2017-08-22T12:18:03.091Z,2.77
2017-08-22T12:20:30.676Z,3.10
2017-08-22T12:22:59.076Z,2.23
2017-08-22T12:25:26.665Z,3.07
2017-08-22T12:27:54.245Z,2.97
2017-08-22T12:30:21.789Z,2.77
2017-08-22T12:32:49.358Z,3.20
2017-08-22T12:35:18.882Z,2.57
2017-08-22T12:37:46.419Z,2.87
2017-08-22T12:40:14.000Z,3.00
2017-08-22T12:42:41.936Z,3.03
2017-08-22T12:45:10.296Z,3.23
2017-08-22T12:47:37.871Z,2.70
2017-08-22T12:50:06.311Z,3.13
2017-08-22T12:52:33.882Z,3.40
2017-08-22T12:55:01.418Z,3.97
2017-08-22T12:57:28.998Z,2.50
2017-08-22T12:59:56.578Z,2.80
2017-08-22T13:02:25.360Z,3.87
2017-08-22T13:04:52.910Z,3.10
2017-08-22T13:07:20.505Z,2.87
2017-08-22T13:09:48.189Z,2.90
2017-08-22T13:12:15.740Z,2.60
2017-08-22T13:14:43.329Z,3.03
2017-08-22T13:17:11.204Z,3.30
2017-08-22T13:19:38.743Z,3.10
2017-08-22T13:22:06.337Z,3.40
2017-08-22T13:24:33.903Z,3.20
2017-08-22T13:27:02.046Z,2.80
2017-08-22T13:29:29.586Z,3.07
2017-08-22T13:31:57.147Z,2.77
2017-08-22T13:34:24.674Z,3.00
2017-08-22T13:36:52.254Z,2.80
2017-08-22T13:39:19.786Z,3.10
2017-08-22T13:41:47.350Z,3.60
2017-08-22T13:44:14.946Z,3.60
2017-08-22T13:46:43.323Z,3.70
2017-08-22T13:49:10.889Z,2.97
2017-08-22T13:51:38.447Z,3.40
2017-08-22T13:54:06.046Z,3.27
2017-08-22T13:56:34.475Z,3.07
2017-08-22T13:59:02.018Z,2.53
2017-08-22T14:01:29.597Z,2.90
2017-08-22T14:03:57.223Z,2.80
2017-08-22T14:06:24.754Z,2.43
2017-08-22T14:08:53.263Z,3.20
2017-08-22T14:11:21.798Z,3.40
2017-08-22T14:13:52.774Z,2.97
2017-08-22T14:16:20.320Z,3.33
2017-08-22T14:18:47.911Z,3.17
2017-08-22T14:21:15.457Z,3.03
2017-08-22T14:23:43.936Z,3.40
2017-08-22T14:26:11.580Z,3.17
2017-08-22T14:28:39.135Z,3.07
2017-08-22T14:31:06.694Z,3.77
2017-08-22T14:33:34.867Z,2.20
2017-08-22T14:36:02.436Z,3.73
2017-08-22T14:38:30.020Z,3.10
2017-08-22T14:40:58.935Z,3.90
2017-08-22T14:43:27.596Z,3.30
2017-08-22T14:45:57.326Z,3.60
2017-08-22T14:48:25.550Z,3.73
2017-08-22T14:50:56.386Z,3.53
2017-08-22T14:53:28.239Z,2.83
2017-08-22T14:55:58.086Z,3.00
2017-08-22T14:58:25.634Z,3.53
2017-08-22T15:00:55.177Z,3.17
2017-08-22T15:03:25.221Z,3.70
2017-08-22T15:05:53.954Z,3.10
2017-08-22T15:08:21.783Z,3.33
2017-08-22T15:10:50.252Z,2.93
2017-08-22T15:13:19.931Z,3.17
2017-08-22T15:15:47.515Z,3.10
2017-08-22T15:18:15.110Z,3.57
2017-08-22T15:20:42.653Z,3.70
2017-08-22T15:23:11.124Z,3.10
2017-08-22T15:25:38.919Z,3.60
2017-08-22T15:28:06.458Z,3.10
2017-08-22T15:30:34.043Z,3.80
2017-08-22T15:33:01.590Z,3.17
2017-08-22T15:35:29.157Z,3.97
2017-08-22T15:37:59.280Z,4.17
2017-08-22T15:40:26.813Z,3.33
2017-08-22T15:42:54.665Z,3.80
2017-08-22T15:45:22.268Z,2.40
2017-08-22T15:47:52.041Z,5.30
2017-08-22T15:50:19.603Z,4.27
2017-08-22T15:52:47.141Z,3.50
2017-08-22T15:55:14.709Z,4.40
2017-08-22T15:57:42.638Z,3.23
2017-08-22T16:00:10.207Z,2.90
2017-08-22T16:02:38.561Z,3.10
2017-08-22T16:05:06.140Z,3.40
2017-08-22T16:07:33.707Z,3.70
2017-08-22T16:10:01.236Z,3.07
2017-08-22T16:12:29.250Z,2.97
2017-08-22T16:14:56.781Z,3.33
2017-08-22T16:17:24.365Z,3.57
2017-08-22T16:19:51.893Z,3.43
2017-08-22T16:22:19.434Z,3.03
2017-08-22T16:24:47.038Z,3.10
2017-08-22T16:27:15.339Z,3.07
2017-08-22T16:29:42.946Z,3.00
2017-08-22T16:32:10.518Z,2.90
2017-08-22T16:34:38.874Z,3.60
2017-08-22T16:37:06.484Z,3.23
2017-08-22T16:39:34.031Z,3.03
2017-08-22T16:42:03.085Z,3.00
2017-08-22T16:44:30.655Z,2.70
2017-08-22T16:47:00.126Z,3.20
2017-08-22T16:49:27.660Z,2.20
2017-08-22T16:51:57.347Z,3.23
2017-08-22T16:54:25.783Z,2.77
2017-08-22T16:56:53.362Z,3.10
2017-08-22T16:59:23.385Z,2.50
2017-08-22T17:01:51.812Z,3.67
2017-08-22T17:04:20.354Z,2.70
2017-08-22T17:06:47.895Z,3.37
2017-08-22T17:09:16.144Z,3.20
2017-08-22T17:11:43.962Z,3.27
2017-08-22T17:14:11.522Z,2.77
2017-08-22T17:16:39.117Z,2.83
2017-08-22T17:19:06.674Z,3.00
2017-08-22T17:21:34.237Z,3.07
2017-08-22T17:24:01.845Z,3.00
2017-08-22T17:26:29.865Z,3.00
2017-08-22T17:28:57.703Z,3.77
2017-08-22T17:31:25.242Z,3.40
2017-08-22T17:33:52.799Z,2.97
2017-08-22T17:36:21.102Z,3.30
2017-08-22T17:38:48.802Z,3.17
2017-08-22T17:41:16.465Z,3.23
2017-08-22T17:43:44.005Z,3.30
2017-08-22T17:46:11.579Z,2.77
2017-08-22T17:48:39.135Z,2.83
2017-08-22T17:51:07.561Z,2.90
2017-08-22T17:53:36.614Z,3.07
2017-08-22T17:56:04.194Z,3.30
2017-08-22T17:58:31.881Z,3.20
2017-08-22T18:00:59.518Z,2.53
2017-08-22T18:03:27.090Z,3.27
2017-08-22T18:05:55.618Z,3.13
2017-08-22T18:08:23.262Z,3.53
2017-08-22T18:10:51.431Z,3.17
2017-08-22T18:13:19.572Z,3.10
2017-08-22T18:15:47.150Z,3.20
2017-08-22T18:18:14.719Z,4.20
2017-08-22T18:20:44.194Z,2.83
2017-08-22T18:23:14.555Z,3.50
2017-08-22T18:25:43.718Z,3.40
2017-08-22T18:28:11.253Z,4.03
2017-08-22T18:30:38.827Z,2.67
2017-08-22T18:33:07.133Z,3.20
2017-08-22T18:35:35.331Z,3.90
2017-08-22T18:38:03.057Z,3.50
2017-08-22T18:40:30.614Z,2.67
2017-08-22T18:42:58.186Z,2.50
2017-08-22T18:45:25.724Z,2.97
2017-08-22T18:47:53.590Z,2.90
2017-08-22T18:50:21.171Z,3.17
2017-08-22T18:52:48.706Z,2.60
2017-08-22T18:55:16.266Z,3.30
2017-08-22T18:57:43.839Z,3.00
2017-08-22T19:00:11.385Z,2.90
2017-08-22T19:02:38.967Z,3.10
2017-08-22T19:05:06.549Z,3.13
2017-08-22T19:07:34.076Z,3.00
2017-08-22T19:10:01.637Z,5.10
2017-08-22T19:12:29.190Z,3.77
2017-08-22T19:17:29.946Z,3.20
2017-08-22T19:19:57.530Z,4.07
2017-08-22T19:22:25.103Z,3.27
2017-08-22T19:24:52.680Z,4.00
2017-08-22T19:27:20.258Z,3.53
2017-08-22T19:29:48.402Z,4.10
2017-08-22T19:32:41.945Z,5.50
2017-08-22T19:35:10.695Z,4.10
2017-08-22T19:37:40.282Z,3.73
2017-08-22T19:40:07.891Z,5.63
2017-08-22T19:42:35.479Z,5.03
2017-08-22T19:45:03.043Z,5.40
2017-08-22T19:47:31.325Z,6.53
2017-08-22T19:49:58.874Z,7.10
2017-08-22T19:52:26.468Z,8.27
2017-08-22T19:54:54.221Z,6.23
2017-08-22T19:57:21.816Z,5.57
2017-08-22T19:59:49.666Z,7.27
2017-08-22T20:02:17.643Z,7.37
2017-08-22T20:04:45.435Z,7.33
2017-08-22T20:07:13.019Z,6.10
2017-08-22T20:09:40.569Z,5.20
2017-08-22T20:12:08.965Z,6.00
2017-08-22T20:14:36.502Z,6.00
2017-08-22T20:17:04.105Z,6.17
2017-08-22T20:19:31.676Z,5.43
2017-08-22T20:21:59.919Z,4.90
2017-08-22T20:24:27.478Z,5.20
2017-08-22T20:26:55.185Z,4.50
2017-08-22T20:29:23.191Z,5.67
2017-08-22T20:31:50.738Z,5.37
2017-08-22T20:34:25.231Z,5.10
2017-08-22T20:36:52.814Z,4.90
2017-08-22T20:39:24.605Z,4.80
2017-08-22T20:41:52.185Z,5.30
2017-08-22T20:44:20.336Z,4.70
2017-08-22T20:46:53.275Z,5.07
2017-08-22T20:51:56.804Z,6.70
2017-08-22T20:54:25.315Z,6.40
2017-08-22T20:56:55.522Z,5.30
2017-08-22T20:59:24.069Z,4.73
2017-08-22T21:01:54.753Z,5.57
2017-08-22T21:04:27.455Z,5.43
2017-08-22T21:06:57.373Z,6.07
2017-08-22T21:09:29.398Z,5.67
2017-08-22T21:11:58.074Z,5.50
2017-08-22T21:14:28.851Z,4.70
2017-08-22T21:16:57.737Z,5.07
2017-08-22T21:19:33.375Z,5.33
2017-08-22T21:22:04.898Z,5.80
2017-08-22T21:24:32.641Z,5.90
2017-08-22T21:27:00.249Z,6.90
2017-08-22T21:29:27.781Z,6.20
2017-08-22T21:31:55.434Z,5.53
2017-08-22T21:34:24.818Z,5.57
2017-08-22T21:36:53.139Z,5.30
2017-08-22T21:39:23.033Z,5.60
2017-08-22T21:41:52.986Z,5.93
2017-08-22T21:44:25.158Z,6.60
2017-08-22T21:46:55.122Z,6.90
2017-08-22T21:49:35.141Z,6.63
2017-08-22T21:52:06.581Z,7.50
2017-08-22T21:54:38.381Z,7.60
2017-08-22T21:57:07.218Z,8.40
2017-08-22T21:59:35.521Z,6.83
2017-08-22T22:02:03.106Z,5.63
2017-08-22T22:04:35.947Z,7.33
2017-08-22T22:07:10.922Z,8.20
2017-08-22T22:09:39.374Z,6.77
2017-08-22T22:12:06.943Z,6.90
2017-08-22T22:14:34.474Z,8.40
2017-08-22T22:17:02.043Z,6.60
2017-08-22T22:19:29.623Z,6.00
2017-08-22T22:22:08.323Z,7.70
2017-08-22T22:24:35.921Z,7.20
2017-08-22T22:27:03.499Z,6.10
2017-08-22T22:29:31.057Z,7.30
2017-08-22T22:31:58.630Z,5.97
2017-08-22T22:34:26.167Z,6.83
2017-08-22T22:36:54.574Z,7.17
2017-08-22T22:39:22.924Z,6.57
2017-08-22T22:41:50.473Z,6.70
2017-08-22T22:44:18.802Z,7.20
2017-08-22T22:46:46.643Z,7.23
2017-08-22T22:49:15.134Z,7.50
2017-08-22T22:51:43.595Z,6.60
2017-08-22T22:54:11.161Z,7.90
2017-08-22T22:56:38.738Z,7.20
2017-08-22T22:59:06.269Z,7.40
2017-08-22T23:01:33.853Z,8.20
2017-08-22T23:04:02.230Z,7.87
2017-08-22T23:06:29.766Z,7.90
2017-08-22T23:08:57.336Z,6.90
2017-08-22T23:11:27.014Z,7.90
2017-08-22T23:13:54.613Z,8.00
2017-08-22T23:16:23.137Z,8.70
2017-08-22T23:18:51.101Z,7.57
2017-08-22T23:21:19.609Z,8.33
2017-08-22T23:23:53.134Z,6.93
2017-08-22T23:26:20.699Z,7.10
2017-08-22T23:28:48.269Z,8.40
2017-08-22T23:31:15.800Z,9.27
2017-08-22T23:33:44.140Z,8.23
2017-08-22T23:36:12.526Z,8.57
2017-08-22T23:38:40.067Z,8.70
2017-08-22T23:41:07.637Z,7.90
2017-08-22T23:43:35.174Z,8.27
2017-08-22T23:46:04.669Z,7.83
2017-08-22T23:48:32.255Z,7.90
2017-08-22T23:50:59.797Z,8.00
2017-08-22T23:53:27.345Z,8.27
2017-08-22T23:55:58.474Z,8.13
2017-08-22T23:58:27.610Z,9.10
